Time,TemperatureF,DewpointF,PressureIn,WindDirection,WindDirectionDegrees,WindSpeedMPH,WindSpeedGustMPH,Humidity,HourlyPrecipIn,Conditions,Clouds,dailyrainin,SoftwareType,DateUTC
2013-05-11 00:01:00,65.7,49.1,29.62,SW,227,0.0,0.0,55,0.00,,,0.00,VWS V14.01,2013-05-11 04:01:00,
2013-05-11 00:06:00,65.5,48.9,29.62,WSW,246,0.0,0.0,55,0.00,,,0.00,VWS V14.01,2013-05-11 04:06:00,
2013-05-11 00:11:00,65.5,49.4,29.62,WSW,239,4.0,4.0,56,0.00,,,0.00,VWS V14.01,2013-05-11 04:11:00,
2013-05-11 00:16:00,65.3,49.2,29.62,SW,230,3.6,3.6,56,0.00,,,0.00,VWS V14.01,2013-05-11 04:16:00,
2013-05-11 00:21:00,65.1,49.0,29.62,SSW,196,0.0,0.0,56,0.00,,,0.00,VWS V14.01,2013-05-11 04:21:00,
2013-05-11 00:26:00,65.1,49.5,29.62,SW,224,0.0,3.1,57,0.00,,,0.00,VWS V14.01,2013-05-11 04:26:00,
2013-05-11 00:31:00,64.9,49.4,29.62,WSW,241,0.0,2.7,57,0.00,,,0.00,VWS V14.01,2013-05-11 04:31:00,
2013-05-11 00:36:00,64.8,49.2,29.62,WSW,246,0.0,0.0,57,0.00,,,0.00,VWS V14.01,2013-05-11 04:36:00,
2013-05-11 00:41:00,64.8,49.2,29.62,SW,223,0.0,0.0,57,0.00,,,0.00,VWS V14.01,2013-05-11 04:41:00,
2013-05-11 00:46:00,64.6,49.5,29.62,SW,230,0.0,0.0,58,0.00,,,0.00,VWS V14.01,2013-05-11 04:46:00,
2013-05-11 00:51:00,64.4,49.3,29.62,WSW,247,2.7,2.7,58,0.00,,,0.00,VWS V14.01,2013-05-11 04:51:00,
2013-05-11 00:56:00,64.4,49.3,29.62,SW,224,3.1,3.1,58,0.00,,,0.00,VWS V14.01,2013-05-11 04:56:00,
2013-05-11 01:01:00,64.4,49.3,29.62,WSW,254,3.6,3.6,58,0.00,,,0.00,VWS V14.01,2013-05-11 05:01:00,
2013-05-11 01:06:00,64.2,49.6,29.62,East,97,2.2,2.7,59,0.00,,,0.00,VWS V14.01,2013-05-11 05:06:00,
2013-05-11 01:11:00,64.2,49.6,29.62,WSW,242,0.0,4.0,59,0.00,,,0.00,VWS V14.01,2013-05-11 05:11:00,
2013-05-11 01:16:00,64.0,49.9,29.62,WSW,242,2.2,2.7,60,0.00,,,0.00,VWS V14.01,2013-05-11 05:16:00,
2013-05-11 01:21:00,64.0,49.9,29.62,West,259,0.0,0.0,60,0.00,,,0.00,VWS V14.01,2013-05-11 05:21:00,
2013-05-11 01:26:00,64.0,49.9,29.62,SW,216,0.0,0.0,60,0.00,,,0.00,VWS V14.01,2013-05-11 05:26:00,
2013-05-11 01:31:00,63.9,49.7,29.62,ESE,117,0.0,0.0,60,0.00,,,0.00,VWS V14.01,2013-05-11 05:31:00,
2013-05-11 01:36:00,63.9,49.7,29.62,SW,224,0.0,0.0,60,0.00,,,0.00,VWS V14.01,2013-05-11 05:36:00,
2013-05-11 01:41:00,63.5,49.4,29.59,SW,217,0.0,0.0,60,0.00,,,0.00,VWS V14.01,2013-05-11 05:41:00,
2013-05-11 01:46:00,63.5,49.4,29.59,SE,130,2.7,2.7,60,0.00,,,0.00,VWS V14.01,2013-05-11 05:46:00,
2013-05-11 01:51:00,63.1,49.5,29.59,SW,214,0.0,3.6,61,0.00,,,0.00,VWS V14.01,2013-05-11 05:51:00,
2013-05-11 01:56:00,63.1,49.5,29.59,SW,214,0.0,0.0,61,0.00,,,0.00,VWS V14.01,2013-05-11 05:56:00,
2013-05-11 02:01:00,63.0,49.3,29.59,SSW,212,0.0,0.0,61,0.00,,,0.00,VWS V14.01,2013-05-11 06:01:00,
2013-05-11 02:06:00,62.8,49.2,29.59,SSW,211,0.0,0.0,61,0.00,,,0.00,VWS V14.01,2013-05-11 06:06:00,
2013-05-11 02:11:00,62.6,49.4,29.59,SW,232,0.0,0.0,62,0.00,,,0.00,VWS V14.01,2013-05-11 06:11:00,
2013-05-11 02:16:00,62.6,49.4,29.59,SW,230,0.0,0.0,62,0.00,,,0.00,VWS V14.01,2013-05-11 06:16:00,
2013-05-11 02:21:00,62.6,49.4,29.59,SW,235,2.2,2.2,62,0.00,,,0.00,VWS V14.01,2013-05-11 06:21:00,
2013-05-11 02:26:00,62.6,49.8,29.59,WSW,244,0.0,2.2,63,0.00,,,0.00,VWS V14.01,2013-05-11 06:26:00,
2013-05-11 02:31:00,62.6,49.8,29.59,WSW,251,0.0,0.0,63,0.00,,,0.00,VWS V14.01,2013-05-11 06:31:00,
2013-05-11 02:36:00,62.6,49.8,29.59,WSW,242,0.0,0.0,63,0.00,,,0.00,VWS V14.01,2013-05-11 06:36:00,
2013-05-11 02:41:00,62.6,49.8,29.59,WSW,242,0.0,0.0,63,0.00,,,0.00,VWS V14.01,2013-05-11 06:41:00,
2013-05-11 02:46:00,62.6,49.8,29.59,SSW,210,0.0,0.0,63,0.00,,,0.00,VWS V14.01,2013-05-11 06:46:00,
2013-05-11 02:51:00,62.2,49.9,29.59,SW,222,0.0,0.0,64,0.00,,,0.00,VWS V14.01,2013-05-11 06:51:00,
2013-05-11 02:56:00,62.2,49.9,29.56,SW,227,0.0,0.0,64,0.00,,,0.00,VWS V14.01,2013-05-11 06:56:00,
2013-05-11 03:01:00,62.1,50.2,29.56,SW,221,0.0,0.0,65,0.00,,,0.00,VWS V14.01,2013-05-11 07:01:00,
2013-05-11 03:06:00,62.1,50.2,29.56,WSW,258,0.0,0.0,65,0.00,,,0.00,VWS V14.01,2013-05-11 07:06:00,
2013-05-11 03:11:00,62.1,50.2,29.56,West,264,0.0,0.0,65,0.00,,,0.00,VWS V14.01,2013-05-11 07:11:00,
2013-05-11 03:16:00,61.7,50.2,29.56,SW,230,0.0,0.0,66,0.00,,,0.00,VWS V14.01,2013-05-11 07:16:00,
2013-05-11 03:21:00,61.7,50.2,29.56,SW,226,0.0,0.0,66,0.00,,,0.00,VWS V14.01,2013-05-11 07:21:00,
2013-05-11 03:26:00,61.5,50.1,29.56,SSW,197,0.0,0.0,66,0.00,,,0.00,VWS V14.01,2013-05-11 07:26:00,
2013-05-11 03:31:00,61.5,50.1,29.56,SSW,197,0.0,0.0,66,0.00,,,0.00,VWS V14.01,2013-05-11 07:31:00,
2013-05-11 03:36:00,61.2,50.1,29.56,WSW,250,0.0,0.0,67,0.00,,,0.00,VWS V14.01,2013-05-11 07:36:00,
2013-05-11 03:41:00,61.0,50.0,29.56,WSW,250,0.0,0.0,67,0.00,,,0.00,VWS V14.01,2013-05-11 07:41:00,
2013-05-11 03:46:00,61.0,50.0,29.56,WSW,250,0.0,0.0,67,0.00,,,0.00,VWS V14.01,2013-05-11 07:46:00,
2013-05-11 03:51:00,60.8,50.2,29.56,SW,234,0.0,0.0,68,0.00,,,0.00,VWS V14.01,2013-05-11 07:51:00,
2013-05-11 03:55:00,60.6,50.0,29.56,SSE,168,2.7,2.7,68,0.00,,,0.00,VWS V14.01,2013-05-11 07:55:00,
2013-05-11 04:00:00,60.6,50.4,29.53,SSE,168,0.0,0.0,69,0.00,,,0.00,VWS V14.01,2013-05-11 08:00:00,
2013-05-11 04:05:00,60.4,50.6,29.53,SSE,164,0.0,0.0,70,0.00,,,0.00,VWS V14.01,2013-05-11 08:05:00,
2013-05-11 04:10:00,60.4,50.6,29.53,SSE,164,0.0,0.0,70,0.00,,,0.00,VWS V14.01,2013-05-11 08:10:00,
2013-05-11 04:15:00,60.4,51.0,29.53,South,186,0.0,0.0,71,0.00,,,0.00,VWS V14.01,2013-05-11 08:15:00,
2013-05-11 04:20:00,60.3,50.8,29.53,SSE,152,0.0,0.0,71,0.00,,,0.00,VWS V14.01,2013-05-11 08:20:00,
2013-05-11 04:25:00,60.3,50.8,29.53,SSE,152,0.0,0.0,71,0.00,,,0.00,VWS V14.01,2013-05-11 08:25:00,
2013-05-11 04:30:00,60.3,50.8,29.53,SSE,153,0.0,0.0,71,0.00,,,0.00,VWS V14.01,2013-05-11 08:30:00,
2013-05-11 04:35:00,60.3,51.2,29.53,WSW,239,2.7,2.7,72,0.00,,,0.00,VWS V14.01,2013-05-11 08:35:00,
2013-05-11 04:40:00,60.3,52.0,29.53,WSW,237,0.0,0.0,74,0.00,,,0.00,VWS V14.01,2013-05-11 08:40:00,
2013-05-11 04:45:00,60.3,52.3,29.53,WSW,252,2.7,2.7,75,0.00,,,0.00,VWS V14.01,2013-05-11 08:45:00,
2013-05-11 04:50:00,60.3,52.3,29.53,WSW,252,2.7,2.7,75,0.00,,,0.00,VWS V14.01,2013-05-11 08:50:00,
2013-05-11 04:55:00,60.4,52.8,29.53,WSW,241,0.0,0.0,76,0.00,,,0.00,VWS V14.01,2013-05-11 08:55:00,
2013-05-11 05:00:00,60.4,53.2,29.53,WSW,244,0.0,0.0,77,0.00,,,0.00,VWS V14.01,2013-05-11 09:00:00,
2013-05-11 05:05:00,60.4,53.6,29.53,WSW,254,0.0,0.0,78,0.00,,,0.00,VWS V14.01,2013-05-11 09:05:00,
2013-05-11 05:10:00,60.4,53.6,29.53,West,267,0.0,0.0,78,0.00,,,0.00,VWS V14.01,2013-05-11 09:10:00,
2013-05-11 05:15:00,60.4,53.6,29.53,West,267,0.0,0.0,78,0.00,,,0.00,VWS V14.01,2013-05-11 09:15:00,
2013-05-11 05:20:00,60.4,53.6,29.53,WSW,257,0.0,0.0,78,0.00,,,0.00,VWS V14.01,2013-05-11 09:20:00,
2013-05-11 05:25:00,60.6,53.7,29.53,WSW,246,4.0,4.0,78,0.00,,,0.00,VWS V14.01,2013-05-11 09:25:00,
2013-05-11 05:30:00,60.4,54.2,29.53,WSW,246,4.0,4.0,80,0.00,,,0.00,VWS V14.01,2013-05-11 09:30:00,
2013-05-11 05:35:00,60.4,54.2,29.53,SSW,213,0.0,0.0,80,0.00,,,0.00,VWS V14.01,2013-05-11 09:35:00,
2013-05-11 05:40:00,60.1,53.9,29.53,SSW,213,0.0,0.0,80,0.00,,,0.00,VWS V14.01,2013-05-11 09:40:00,
2013-05-11 05:45:00,60.1,53.9,29.53,SSE,153,0.0,0.0,80,0.00,,,0.00,VWS V14.01,2013-05-11 09:45:00,
2013-05-11 05:50:00,59.7,53.9,29.53,SSE,147,0.0,0.0,81,0.00,,,0.00,VWS V14.01,2013-05-11 09:50:00,
2013-05-11 05:55:00,59.7,53.9,29.53,SSE,147,0.0,0.0,81,0.04,,,0.04,VWS V14.01,2013-05-11 09:55:00,
2013-05-11 06:00:00,59.7,54.2,29.53,WSW,249,0.0,0.0,82,0.04,,,0.04,VWS V14.01,2013-05-11 10:00:00,
2013-05-11 06:05:00,59.5,54.4,29.53,WSW,243,3.1,3.1,83,0.04,,,0.04,VWS V14.01,2013-05-11 10:05:00,
2013-05-11 06:10:00,59.5,54.4,29.53,South,180,0.0,0.0,83,0.04,,,0.04,VWS V14.01,2013-05-11 10:10:00,
2013-05-11 06:15:00,59.5,55.0,29.53,SW,232,0.0,0.0,85,0.04,,,0.04,VWS V14.01,2013-05-11 10:15:00,
2013-05-11 06:20:00,59.5,55.0,29.53,SW,232,0.0,0.0,85,0.04,,,0.04,VWS V14.01,2013-05-11 10:20:00,
2013-05-11 06:25:00,59.5,55.3,29.53,SW,221,0.0,0.0,86,0.04,,,0.04,VWS V14.01,2013-05-11 10:25:00,
2013-05-11 06:30:00,59.7,55.8,29.53,SW,221,0.0,0.0,87,0.04,,,0.04,VWS V14.01,2013-05-11 10:30:00,
2013-05-11 06:35:00,59.7,55.8,29.53,SW,221,0.0,0.0,87,0.04,,,0.04,VWS V14.01,2013-05-11 10:35:00,
2013-05-11 06:40:00,59.7,56.2,29.53,WSW,244,0.0,0.0,88,0.04,,,0.04,VWS V14.01,2013-05-11 10:40:00,
2013-05-11 06:45:00,59.7,56.2,29.53,WSW,253,0.0,0.0,88,0.04,,,0.04,VWS V14.01,2013-05-11 10:45:00,
2013-05-11 06:50:00,59.7,56.5,29.53,SW,229,0.0,0.0,89,0.04,,,0.04,VWS V14.01,2013-05-11 10:50:00,
2013-05-11 06:55:00,59.7,56.5,29.53,SW,236,0.0,0.0,89,0.00,,,0.04,VWS V14.01,2013-05-11 10:55:00,
2013-05-11 07:00:00,59.7,56.8,29.53,SW,236,0.0,0.0,90,0.00,,,0.04,VWS V14.01,2013-05-11 11:00:00,
2013-05-11 07:05:00,59.9,57.0,29.53,SW,230,0.0,0.0,90,0.00,,,0.04,VWS V14.01,2013-05-11 11:05:00,
2013-05-11 07:10:00,60.1,57.5,29.53,WSW,251,0.0,0.0,91,0.00,,,0.04,VWS V14.01,2013-05-11 11:10:00,
2013-05-11 07:15:00,60.1,57.5,29.53,WSW,252,0.0,0.0,91,0.00,,,0.04,VWS V14.01,2013-05-11 11:15:00,
2013-05-11 07:20:00,60.1,57.5,29.53,SW,232,0.0,0.0,91,0.00,,,0.04,VWS V14.01,2013-05-11 11:20:00,
2013-05-11 07:25:00,60.1,57.5,29.53,SW,217,0.0,0.0,91,0.00,,,0.04,VWS V14.01,2013-05-11 11:25:00,
2013-05-11 07:30:00,60.3,57.9,29.53,WSW,247,0.0,0.0,92,0.00,,,0.04,VWS V14.01,2013-05-11 11:30:00,
2013-05-11 07:35:00,60.4,58.1,29.53,SW,229,0.0,0.0,92,0.00,,,0.04,VWS V14.01,2013-05-11 11:35:00,
2013-05-11 07:40:00,60.4,58.1,29.53,SW,229,0.0,0.0,92,0.00,,,0.04,VWS V14.01,2013-05-11 11:40:00,
2013-05-11 07:45:00,60.4,58.1,29.53,WSW,257,0.0,0.0,92,0.00,,,0.04,VWS V14.01,2013-05-11 11:45:00,
2013-05-11 07:50:00,60.6,58.3,29.53,WSW,242,0.0,0.0,92,0.00,,,0.04,VWS V14.01,2013-05-11 11:50:00,
2013-05-11 07:55:00,60.6,58.3,29.53,WSW,242,0.0,0.0,92,0.00,,,0.04,VWS V14.01,2013-05-11 11:55:00,
2013-05-11 08:00:00,61.0,58.6,29.53,WSW,246,0.0,0.0,92,0.00,,,0.04,VWS V14.01,2013-05-11 12:00:00,
2013-05-11 08:05:00,61.0,58.6,29.53,SSW,211,0.0,0.0,92,0.00,,,0.04,VWS V14.01,2013-05-11 12:05:00,
2013-05-11 08:10:00,61.0,58.6,29.53,West,266,0.0,0.0,92,0.00,,,0.04,VWS V14.01,2013-05-11 12:10:00,
2013-05-11 08:15:00,61.7,59.4,29.53,WSW,245,0.0,0.0,92,0.00,,,0.04,VWS V14.01,2013-05-11 12:15:00,
2013-05-11 08:20:00,61.7,59.4,29.53,WSW,242,0.0,0.0,92,0.00,,,0.04,VWS V14.01,2013-05-11 12:20:00,
2013-05-11 08:25:00,62.1,60.0,29.53,ESE,112,0.0,0.0,93,0.00,,,0.04,VWS V14.01,2013-05-11 12:25:00,
2013-05-11 08:30:00,62.1,60.0,29.50,West,279,0.0,0.0,93,0.00,,,0.04,VWS V14.01,2013-05-11 12:30:00,
2013-05-11 08:35:00,62.1,60.0,29.50,West,279,0.0,0.0,93,0.00,,,0.04,VWS V14.01,2013-05-11 12:35:00,
2013-05-11 08:40:00,62.8,60.7,29.50,SSW,213,0.0,0.0,93,0.00,,,0.04,VWS V14.01,2013-05-11 12:40:00,
2013-05-11 08:45:00,62.8,60.7,29.50,WSW,240,0.0,0.0,93,0.00,,,0.04,VWS V14.01,2013-05-11 12:45:00,
2013-05-11 08:50:00,63.1,61.1,29.50,WSW,240,0.0,0.0,93,0.00,,,0.04,VWS V14.01,2013-05-11 12:50:00,
2013-05-11 08:55:00,63.1,61.1,29.50,SSW,212,0.0,0.0,93,0.00,,,0.04,VWS V14.01,2013-05-11 12:55:00,
2013-05-11 09:00:00,63.1,61.1,29.50,SW,219,3.6,3.6,93,0.00,,,0.04,VWS V14.01,2013-05-11 13:00:00,
2013-05-11 09:05:00,63.5,61.1,29.50,West,262,0.0,0.0,92,0.00,,,0.04,VWS V14.01,2013-05-11 13:05:00,
2013-05-11 09:10:00,63.7,61.3,29.50,SW,227,0.0,0.0,92,0.00,,,0.04,VWS V14.01,2013-05-11 13:10:00,
2013-05-11 09:15:00,64.2,61.8,29.50,SW,221,0.0,0.0,92,0.00,,,0.04,VWS V14.01,2013-05-11 13:15:00,
2013-05-11 09:20:00,64.4,61.7,29.50,SW,227,0.0,0.0,91,0.00,,,0.04,VWS V14.01,2013-05-11 13:20:00,
2013-05-11 09:25:00,64.4,61.7,29.50,WSW,253,0.0,2.2,91,0.00,,,0.04,VWS V14.01,2013-05-11 13:25:00,
2013-05-11 09:30:00,65.1,62.1,29.50,SW,227,0.0,0.0,90,0.00,,,0.04,VWS V14.01,2013-05-11 13:30:00,
2013-05-11 09:35:00,65.5,61.8,29.50,SW,233,0.0,0.0,88,0.00,,,0.04,VWS V14.01,2013-05-11 13:35:00,
2013-05-11 09:40:00,65.8,61.9,29.50,SW,219,0.0,0.0,87,0.00,,,0.04,VWS V14.01,2013-05-11 13:40:00,
2013-05-11 09:45:00,66.0,61.7,29.50,WSW,241,0.0,2.2,86,0.00,,,0.04,VWS V14.01,2013-05-11 13:45:00,
2013-05-11 09:50:00,66.2,60.9,29.50,SW,221,5.8,5.8,83,0.00,,,0.04,VWS V14.01,2013-05-11 13:50:00,
2013-05-11 09:55:00,66.2,60.9,29.50,SW,229,2.7,2.7,83,0.00,,,0.04,VWS V14.01,2013-05-11 13:55:00,
2013-05-11 10:00:00,66.6,60.2,29.50,SW,236,2.2,2.2,80,0.00,,,0.04,VWS V14.01,2013-05-11 14:00:00,
2013-05-11 10:05:00,66.9,60.2,29.50,SW,217,0.0,0.0,79,0.00,,,0.04,VWS V14.01,2013-05-11 14:05:00,
2013-05-11 10:10:00,67.1,60.4,29.50,SW,228,0.0,0.0,79,0.00,,,0.04,VWS V14.01,2013-05-11 14:10:00,
2013-05-11 10:15:00,67.1,60.0,29.50,WSW,246,0.0,0.0,78,0.00,,,0.04,VWS V14.01,2013-05-11 14:15:00,
2013-05-11 10:20:00,67.1,60.0,29.50,NW,316,0.0,0.0,78,0.00,,,0.04,VWS V14.01,2013-05-11 14:20:00,
2013-05-11 10:25:00,66.9,59.1,29.50,West,262,0.0,0.0,76,0.00,,,0.04,VWS V14.01,2013-05-11 14:25:00,
2013-05-11 10:30:00,66.9,58.4,29.50,North,0,0.0,0.0,74,0.00,,,0.04,VWS V14.01,2013-05-11 14:30:00,
2013-05-11 10:35:00,66.9,58.0,29.50,West,265,2.2,3.6,73,0.00,,,0.04,VWS V14.01,2013-05-11 14:35:00,
2013-05-11 10:40:00,67.1,57.8,29.50,SSW,205,5.4,5.4,72,0.00,,,0.04,VWS V14.01,2013-05-11 14:40:00,
2013-05-11 10:45:00,67.1,57.8,29.50,SW,222,6.3,6.3,72,0.00,,,0.04,VWS V14.01,2013-05-11 14:45:00,
2013-05-11 10:50:00,67.6,57.5,29.50,WSW,237,6.3,6.3,70,0.00,,,0.04,VWS V14.01,2013-05-11 14:50:00,
2013-05-11 10:55:00,67.6,57.5,29.50,SW,234,3.1,3.1,70,0.00,,,0.04,VWS V14.01,2013-05-11 14:55:00,
2013-05-11 11:00:00,68.2,57.6,29.50,West,275,5.8,5.8,69,0.00,,,0.04,VWS V14.01,2013-05-11 15:00:00,
2013-05-11 11:05:00,68.7,57.3,29.50,SW,233,6.7,6.7,67,0.00,,,0.04,VWS V14.01,2013-05-11 15:05:00,
2013-05-11 11:10:00,68.9,57.5,29.50,WSW,240,3.1,3.1,67,0.00,,,0.04,VWS V14.01,2013-05-11 15:10:00,
2013-05-11 11:15:00,69.1,56.8,29.50,North,8,4.0,4.0,65,0.00,,,0.04,VWS V14.01,2013-05-11 15:15:00,
2013-05-11 11:20:00,69.1,56.8,29.50,West,272,2.7,2.7,65,0.00,,,0.04,VWS V14.01,2013-05-11 15:20:00,
2013-05-11 11:25:00,69.3,57.0,29.50,SW,234,0.0,0.0,65,0.00,,,0.04,VWS V14.01,2013-05-11 15:25:00,
2013-05-11 11:30:00,69.6,57.3,29.50,West,278,0.0,0.0,65,0.00,,,0.04,VWS V14.01,2013-05-11 15:30:00,
2013-05-11 11:35:00,69.6,57.3,29.50,WNW,294,0.0,0.0,65,0.00,,,0.04,VWS V14.01,2013-05-11 15:35:00,
2013-05-11 11:40:00,70.2,56.5,29.50,WSW,246,10.1,10.1,62,0.00,,,0.04,VWS V14.01,2013-05-11 15:40:00,
2013-05-11 11:45:00,70.2,56.5,29.50,NW,308,3.6,3.6,62,0.00,,,0.04,VWS V14.01,2013-05-11 15:45:00,
2013-05-11 11:50:00,70.2,56.5,29.50,WNW,294,2.7,2.7,62,0.00,,,0.04,VWS V14.01,2013-05-11 15:50:00,
2013-05-11 11:55:00,70.2,56.5,29.50,WNW,282,3.1,3.1,62,0.00,,,0.04,VWS V14.01,2013-05-11 15:55:00,
2013-05-11 12:00:00,70.2,56.5,29.50,West,264,4.9,4.9,62,0.00,,,0.04,VWS V14.01,2013-05-11 16:00:00,
2013-05-11 12:05:00,70.2,56.5,29.50,NW,316,4.0,4.0,62,0.00,,,0.04,VWS V14.01,2013-05-11 16:05:00,
2013-05-11 12:10:00,69.6,56.5,29.50,West,265,3.6,3.6,63,0.00,,,0.04,VWS V14.01,2013-05-11 16:10:00,
2013-05-11 12:15:00,69.6,56.9,29.47,SW,235,3.1,3.1,64,0.00,,,0.04,VWS V14.01,2013-05-11 16:15:00,
2013-05-11 12:20:00,69.4,56.8,29.47,West,264,2.2,2.2,64,0.00,,,0.04,VWS V14.01,2013-05-11 16:20:00,
2013-05-11 12:25:00,69.6,56.9,29.47,WSW,252,5.8,6.3,64,0.00,,,0.04,VWS V14.01,2013-05-11 16:25:00,
2013-05-11 12:30:00,69.6,56.5,29.47,West,259,3.1,3.1,63,0.00,,,0.04,VWS V14.01,2013-05-11 16:30:00,
2013-05-11 12:35:00,69.8,56.7,29.47,NW,321,2.7,2.7,63,0.00,,,0.04,VWS V14.01,2013-05-11 16:35:00,
2013-05-11 12:40:00,69.8,56.7,29.47,SW,227,5.4,5.4,63,0.00,,,0.04,VWS V14.01,2013-05-11 16:40:00,
2013-05-11 12:45:00,69.8,56.7,29.47,WSW,239,6.3,6.3,63,0.00,,,0.04,VWS V14.01,2013-05-11 16:45:00,
2013-05-11 12:50:00,70.2,57.0,29.47,WSW,256,4.0,4.0,63,0.00,,,0.04,VWS V14.01,2013-05-11 16:50:00,
2013-05-11 12:55:00,70.2,57.0,29.47,WSW,249,4.0,4.0,63,0.00,,,0.04,VWS V14.01,2013-05-11 16:55:00,
2013-05-11 13:00:00,70.2,56.5,29.47,West,263,2.2,2.2,62,0.00,,,0.04,VWS V14.01,2013-05-11 17:00:00,
2013-05-11 13:05:00,70.2,55.6,29.47,WSW,254,3.1,3.1,60,0.00,,,0.04,VWS V14.01,2013-05-11 17:05:00,
2013-05-11 13:10:00,70.2,55.6,29.47,West,263,10.1,10.1,60,0.00,,,0.04,VWS V14.01,2013-05-11 17:10:00,
2013-05-11 13:15:00,70.0,56.4,29.47,WSW,249,8.3,8.3,62,0.00,,,0.04,VWS V14.01,2013-05-11 17:15:00,
2013-05-11 13:20:00,69.6,56.9,29.47,SW,234,4.9,4.9,64,0.00,,,0.04,VWS V14.01,2013-05-11 17:20:00,
2013-05-11 13:25:00,69.4,56.8,29.47,West,267,4.0,4.0,64,0.00,,,0.04,VWS V14.01,2013-05-11 17:25:00,
2013-05-11 13:30:00,69.4,56.8,29.47,West,273,3.6,3.6,64,0.00,,,0.04,VWS V14.01,2013-05-11 17:30:00,
2013-05-11 13:35:00,69.3,57.0,29.47,WSW,249,5.8,5.8,65,0.00,,,0.04,VWS V14.01,2013-05-11 17:35:00,
2013-05-11 13:40:00,69.3,57.0,29.47,West,279,3.6,3.6,65,0.00,,,0.04,VWS V14.01,2013-05-11 17:40:00,
2013-05-11 13:45:00,68.7,56.9,29.47,SW,217,5.8,5.8,66,0.00,,,0.04,VWS V14.01,2013-05-11 17:45:00,
2013-05-11 13:50:00,68.4,57.0,29.47,WNW,301,4.9,11.0,67,0.00,,,0.04,VWS V14.01,2013-05-11 17:50:00,
2013-05-11 13:55:00,68.2,57.2,29.47,West,273,6.3,6.3,68,0.00,,,0.04,VWS V14.01,2013-05-11 17:55:00,
2013-05-11 14:00:00,68.0,57.5,29.47,West,272,2.2,2.2,69,0.00,,,0.04,VWS V14.01,2013-05-11 18:00:00,
2013-05-11 14:05:00,68.0,57.5,29.47,SW,217,3.6,3.6,69,0.00,,,0.04,VWS V14.01,2013-05-11 18:05:00,
2013-05-11 14:10:00,67.8,57.7,29.47,SW,230,4.9,4.9,70,0.00,,,0.04,VWS V14.01,2013-05-11 18:10:00,
2013-05-11 14:15:00,67.6,57.5,29.47,WSW,246,2.7,7.6,70,0.00,,,0.04,VWS V14.01,2013-05-11 18:15:00,
2013-05-11 14:20:00,67.5,57.0,29.47,WSW,243,3.6,3.6,69,0.00,,,0.04,VWS V14.01,2013-05-11 18:20:00,
2013-05-11 14:25:00,67.5,57.0,29.47,SSW,210,8.3,8.3,69,0.00,,,0.04,VWS V14.01,2013-05-11 18:25:00,
2013-05-11 14:30:00,67.1,57.4,29.47,NW,311,2.2,2.2,71,0.00,,,0.04,VWS V14.01,2013-05-11 18:30:00,
2013-05-11 14:35:00,66.9,57.2,29.47,SW,234,4.9,4.9,71,0.00,,,0.04,VWS V14.01,2013-05-11 18:35:00,
2013-05-11 14:40:00,66.9,57.2,29.47,SSW,197,3.1,3.1,71,0.00,,,0.04,VWS V14.01,2013-05-11 18:40:00,
2013-05-11 14:45:00,66.9,57.2,29.47,WSW,256,0.0,0.0,71,0.00,,,0.04,VWS V14.01,2013-05-11 18:45:00,
2013-05-11 14:50:00,66.9,57.2,29.47,WNW,282,3.1,3.1,71,0.00,,,0.04,VWS V14.01,2013-05-11 18:50:00,
2013-05-11 14:55:00,66.7,57.0,29.47,SW,217,6.3,6.3,71,0.00,,,0.04,VWS V14.01,2013-05-11 18:55:00,
2013-05-11 15:00:00,66.7,56.7,29.47,West,274,7.2,7.2,70,0.00,,,0.00,VWS V14.01,2013-05-11 19:00:00,
2013-05-11 15:05:00,66.7,56.3,29.47,SW,225,2.2,2.2,69,0.00,,,0.04,VWS V14.01,2013-05-11 19:05:00,
2013-05-11 15:10:00,66.6,56.1,29.47,SW,233,3.1,5.8,69,0.00,,,0.04,VWS V14.01,2013-05-11 19:10:00,
2013-05-11 15:15:00,66.6,56.1,29.47,WSW,252,4.0,4.0,69,0.00,,,0.04,VWS V14.01,2013-05-11 19:15:00,
2013-05-11 15:20:00,66.6,56.1,29.47,WSW,249,2.2,2.2,69,0.00,,,0.04,VWS V14.01,2013-05-11 19:20:00,
2013-05-11 15:25:00,66.4,56.3,29.47,WNW,295,4.9,4.9,70,0.00,,,0.04,VWS V14.01,2013-05-11 19:25:00,
2013-05-11 15:30:00,66.2,56.1,29.47,West,262,4.0,4.0,70,0.00,,,0.04,VWS V14.01,2013-05-11 19:30:00,
2013-05-11 15:35:00,66.0,56.7,29.47,WSW,256,2.7,5.8,72,0.00,,,0.04,VWS V14.01,2013-05-11 19:35:00,
2013-05-11 15:40:00,66.0,56.7,29.47,SW,235,5.8,5.8,72,0.00,,,0.04,VWS V14.01,2013-05-11 19:40:00,
2013-05-11 15:45:00,66.0,56.7,29.47,South,191,2.7,2.7,72,0.00,,,0.04,VWS V14.01,2013-05-11 19:45:00,
2013-05-11 15:50:00,65.8,57.0,29.44,SW,226,3.1,3.1,73,0.00,,,0.04,VWS V14.01,2013-05-11 19:50:00,
2013-05-11 15:55:00,65.8,57.0,29.44,SSW,213,5.8,5.8,73,0.00,,,0.04,VWS V14.01,2013-05-11 19:55:00,
2013-05-11 16:00:00,65.8,57.3,29.44,SW,219,7.6,7.6,74,0.00,,,0.04,VWS V14.01,2013-05-11 20:00:00,
2013-05-11 16:05:00,66.2,57.7,29.44,West,273,5.8,5.8,74,0.00,,,0.04,VWS V14.01,2013-05-11 20:05:00,
2013-05-11 16:10:00,66.6,58.0,29.44,West,262,3.1,5.8,74,0.00,,,0.04,VWS V14.01,2013-05-11 20:10:00,
2013-05-11 16:15:00,66.7,57.4,29.44,WSW,252,0.0,2.7,72,0.00,,,0.04,VWS V14.01,2013-05-11 20:15:00,
2013-05-11 16:20:00,66.7,57.4,29.44,WSW,246,2.2,4.0,72,0.00,,,0.04,VWS V14.01,2013-05-11 20:20:00,
2013-05-11 16:25:00,66.7,57.4,29.44,WNW,288,0.0,0.0,72,0.00,,,0.04,VWS V14.01,2013-05-11 20:25:00,
2013-05-11 16:30:00,66.7,57.4,29.44,West,280,3.6,3.6,72,0.00,,,0.04,VWS V14.01,2013-05-11 20:30:00,
2013-05-11 16:35:00,66.6,57.3,29.44,West,259,2.7,2.7,72,0.00,,,0.04,VWS V14.01,2013-05-11 20:35:00,
2013-05-11 16:40:00,66.6,58.0,29.44,West,270,2.2,2.2,74,0.00,,,0.04,VWS V14.01,2013-05-11 20:40:00,
2013-05-11 16:45:00,66.6,58.4,29.44,SSE,147,2.7,2.7,75,0.00,,,0.04,VWS V14.01,2013-05-11 20:45:00,
2013-05-11 16:50:00,66.2,58.4,29.44,SW,230,3.1,3.1,76,0.00,,,0.04,VWS V14.01,2013-05-11 20:50:00,
2013-05-11 16:55:00,66.2,58.8,29.44,WSW,247,0.0,0.0,77,0.00,,,0.04,VWS V14.01,2013-05-11 20:55:00,
2013-05-11 17:00:00,66.2,59.2,29.44,SW,227,3.6,3.6,78,0.00,,,0.04,VWS V14.01,2013-05-11 21:00:00,
2013-05-11 17:05:00,66.4,59.3,29.44,WSW,237,4.0,4.0,78,0.00,,,0.04,VWS V14.01,2013-05-11 21:05:00,
2013-05-11 17:10:00,66.4,59.3,29.44,West,273,0.0,0.0,78,0.00,,,0.04,VWS V14.01,2013-05-11 21:10:00,
2013-05-11 17:15:00,66.6,59.5,29.44,NW,326,3.1,3.1,78,0.00,,,0.04,VWS V14.01,2013-05-11 21:15:00,
2013-05-11 17:20:00,66.6,59.1,29.44,WSW,246,3.1,3.1,77,0.00,,,0.04,VWS V14.01,2013-05-11 21:20:00,
2013-05-11 17:25:00,66.7,59.3,29.44,WSW,245,3.1,3.1,77,0.00,,,0.04,VWS V14.01,2013-05-11 21:25:00,
2013-05-11 17:30:00,66.7,59.3,29.44,WNW,299,2.7,2.7,77,0.00,,,0.04,VWS V14.01,2013-05-11 21:30:00,
2013-05-11 17:35:00,66.9,59.5,29.44,WSW,244,0.0,3.6,77,0.00,,,0.04,VWS V14.01,2013-05-11 21:35:00,
2013-05-11 17:40:00,66.9,59.5,29.44,WSW,244,0.0,0.0,77,0.00,,,0.04,VWS V14.01,2013-05-11 21:40:00,
2013-05-11 17:45:00,66.9,59.1,29.44,WSW,240,3.6,3.6,76,0.00,,,0.04,VWS V14.01,2013-05-11 21:45:00,
2013-05-11 17:50:00,66.9,59.1,29.44,SW,220,6.3,6.3,76,0.00,,,0.04,VWS V14.01,2013-05-11 21:50:00,
2013-05-11 17:55:00,66.9,59.1,29.44,WSW,237,2.2,2.2,76,0.00,,,0.04,VWS V14.01,2013-05-11 21:55:00,
2013-05-11 18:00:00,66.9,59.1,29.44,SSE,167,5.4,5.4,76,0.00,,,0.04,VWS V14.01,2013-05-11 22:00:00,
2013-05-11 18:05:00,66.9,59.1,29.44,WSW,242,3.6,3.6,76,0.00,,,0.04,VWS V14.01,2013-05-11 22:05:00,
2013-05-11 18:10:00,66.9,58.8,29.44,West,259,4.9,4.9,75,0.00,,,0.04,VWS V14.01,2013-05-11 22:10:00,
2013-05-11 18:15:00,66.7,58.9,29.44,WSW,243,3.1,3.1,76,0.00,,,0.04,VWS V14.01,2013-05-11 22:15:00,
2013-05-11 18:20:00,66.7,58.9,29.44,WSW,253,2.7,2.7,76,0.00,,,0.04,VWS V14.01,2013-05-11 22:20:00,
2013-05-11 18:25:00,66.6,59.1,29.44,SW,236,3.1,3.1,77,0.00,,,0.04,VWS V14.01,2013-05-11 22:25:00,
2013-05-11 18:30:00,66.4,59.0,29.44,West,274,3.1,3.6,77,0.00,,,0.04,VWS V14.01,2013-05-11 22:30:00,
2013-05-11 18:35:00,66.0,59.7,29.44,West,274,3.1,3.1,80,0.00,,,0.04,VWS V14.01,2013-05-11 22:35:00,
2013-05-11 18:39:00,66.0,59.7,29.44,WSW,250,0.0,0.0,80,0.00,,,0.04,VWS V14.01,2013-05-11 22:39:00,
2013-05-11 18:44:00,65.5,59.5,29.44,WSW,256,3.1,3.1,81,0.00,,,0.04,VWS V14.01,2013-05-11 22:44:00,
2013-05-11 18:49:00,65.1,59.8,29.44,WSW,250,2.2,2.2,83,0.00,,,0.04,VWS V14.01,2013-05-11 22:49:00,
2013-05-11 18:54:00,64.9,60.0,29.44,WSW,237,2.7,4.0,84,0.08,,,0.12,VWS V14.01,2013-05-11 22:54:00,
2013-05-11 18:59:00,64.9,60.0,29.44,SSW,204,2.7,2.7,84,0.08,,,0.12,VWS V14.01,2013-05-11 22:59:00,
2013-05-11 19:04:00,64.8,60.5,29.44,West,271,0.0,0.0,86,0.08,,,0.12,VWS V14.01,2013-05-11 23:04:00,
2013-05-11 19:09:00,64.6,60.3,29.44,WSW,252,0.0,0.0,86,0.08,,,0.12,VWS V14.01,2013-05-11 23:09:00,
2013-05-11 19:14:00,64.6,60.6,29.44,WSW,258,5.4,5.4,87,0.08,,,0.12,VWS V14.01,2013-05-11 23:14:00,
2013-05-11 19:19:00,64.6,60.6,29.44,WSW,255,4.0,4.0,87,0.08,,,0.12,VWS V14.01,2013-05-11 23:19:00,
2013-05-11 19:24:00,64.6,61.0,29.44,WSW,246,2.7,2.7,88,0.08,,,0.12,VWS V14.01,2013-05-11 23:24:00,
2013-05-11 19:29:00,64.6,61.0,29.44,WSW,241,5.4,5.4,88,0.08,,,0.12,VWS V14.01,2013-05-11 23:29:00,
2013-05-11 19:34:00,64.4,61.1,29.44,WSW,245,3.1,3.6,89,0.08,,,0.12,VWS V14.01,2013-05-11 23:34:00,
2013-05-11 19:39:00,64.4,61.4,29.44,WSW,245,3.1,3.1,90,0.08,,,0.12,VWS V14.01,2013-05-11 23:39:00,
2013-05-11 19:44:00,64.4,61.4,29.44,WSW,253,4.0,4.0,90,0.08,,,0.12,VWS V14.01,2013-05-11 23:44:00,
2013-05-11 19:49:00,64.4,61.4,29.44,WSW,241,2.7,2.7,90,0.08,,,0.12,VWS V14.01,2013-05-11 23:49:00,
2013-05-11 19:54:00,64.4,61.4,29.44,West,260,0.0,2.7,90,0.00,,,0.12,VWS V14.01,2013-05-11 23:54:00,
2013-05-11 19:59:00,64.4,61.7,29.44,West,260,0.0,0.0,91,0.00,,,0.12,VWS V14.01,2013-05-11 23:59:00,
2013-05-11 20:04:00,64.4,61.7,29.44,WSW,254,0.0,0.0,91,0.00,,,0.12,VWS V14.01,2013-05-12 00:04:00,
2013-05-11 20:09:00,64.2,61.5,29.44,WSW,242,0.0,3.6,91,0.00,,,0.12,VWS V14.01,2013-05-12 00:09:00,
2013-05-11 20:14:00,64.2,61.5,29.44,WSW,242,0.0,0.0,91,0.00,,,0.12,VWS V14.01,2013-05-12 00:14:00,
2013-05-11 20:19:00,64.2,61.5,29.44,WSW,242,0.0,0.0,91,0.00,,,0.12,VWS V14.01,2013-05-12 00:19:00,
2013-05-11 20:24:00,64.2,61.5,29.44,WSW,253,3.1,3.1,91,0.00,,,0.12,VWS V14.01,2013-05-12 00:24:00,
2013-05-11 20:29:00,64.2,61.5,29.44,WNW,294,0.0,0.0,91,0.00,,,0.12,VWS V14.01,2013-05-12 00:29:00,
2013-05-11 20:34:00,64.2,61.5,29.44,WNW,294,0.0,0.0,91,0.00,,,0.12,VWS V14.01,2013-05-12 00:34:00,
2013-05-11 20:39:00,64.2,61.5,29.44,WSW,251,0.0,0.0,91,0.00,,,0.12,VWS V14.01,2013-05-12 00:39:00,
2013-05-11 20:44:00,64.2,61.5,29.44,WSW,247,0.0,0.0,91,0.00,,,0.12,VWS V14.01,2013-05-12 00:44:00,
2013-05-11 20:49:00,64.2,61.5,29.44,SW,224,0.0,0.0,91,0.00,,,0.12,VWS V14.01,2013-05-12 00:49:00,
2013-05-11 20:54:00,64.2,61.5,29.44,SW,224,0.0,0.0,91,0.00,,,0.12,VWS V14.01,2013-05-12 00:54:00,
2013-05-11 20:59:00,64.2,61.5,29.44,SW,226,0.0,0.0,91,0.00,,,0.12,VWS V14.01,2013-05-12 00:59:00,
2013-05-11 21:04:00,64.2,61.5,29.44,South,175,0.0,0.0,91,0.00,,,0.12,VWS V14.01,2013-05-12 01:04:00,
2013-05-11 21:09:00,64.2,61.5,29.44,SW,231,0.0,0.0,91,0.00,,,0.12,VWS V14.01,2013-05-12 01:09:00,
2013-05-11 21:14:00,64.0,61.4,29.44,WSW,243,0.0,0.0,91,0.00,,,0.12,VWS V14.01,2013-05-12 01:14:00,
2013-05-11 21:19:00,64.0,61.4,29.44,WSW,248,0.0,0.0,91,0.00,,,0.12,VWS V14.01,2013-05-12 01:19:00,
2013-05-11 21:24:00,64.0,61.7,29.44,WSW,241,0.0,0.0,92,0.00,,,0.12,VWS V14.01,2013-05-12 01:24:00,
2013-05-11 21:29:00,64.0,61.7,29.41,ESE,116,0.0,0.0,92,0.00,,,0.12,VWS V14.01,2013-05-12 01:29:00,
2013-05-11 21:34:00,64.0,61.7,29.41,WSW,244,0.0,0.0,92,0.00,,,0.12,VWS V14.01,2013-05-12 01:34:00,
2013-05-11 21:39:00,64.2,61.8,29.41,WSW,244,0.0,0.0,92,0.00,,,0.12,VWS V14.01,2013-05-12 01:39:00,
2013-05-11 21:44:00,64.2,61.8,29.41,SSW,213,0.0,0.0,92,0.00,,,0.12,VWS V14.01,2013-05-12 01:44:00,
2013-05-11 21:49:00,64.2,61.8,29.44,SSW,213,0.0,0.0,92,0.00,,,0.12,VWS V14.01,2013-05-12 01:49:00,
2013-05-11 21:54:00,64.2,61.8,29.44,SW,216,0.0,0.0,92,0.00,,,0.12,VWS V14.01,2013-05-12 01:54:00,
2013-05-11 21:59:00,64.2,61.8,29.41,SW,227,0.0,0.0,92,0.00,,,0.12,VWS V14.01,2013-05-12 01:59:00,
2013-05-11 22:04:00,64.2,61.8,29.41,WSW,255,0.0,0.0,92,0.00,,,0.12,VWS V14.01,2013-05-12 02:04:00,
2013-05-11 22:09:00,64.0,61.7,29.41,WSW,237,0.0,0.0,92,0.00,,,0.12,VWS V14.01,2013-05-12 02:09:00,
2013-05-11 22:14:00,64.0,61.7,29.41,WSW,245,0.0,0.0,92,0.00,,,0.12,VWS V14.01,2013-05-12 02:14:00,
2013-05-11 22:19:00,64.0,61.7,29.41,ESE,121,0.0,2.7,92,0.00,,,0.12,VWS V14.01,2013-05-12 02:19:00,
2013-05-11 22:24:00,64.0,61.7,29.41,ESE,121,0.0,0.0,92,0.00,,,0.12,VWS V14.01,2013-05-12 02:24:00,
2013-05-11 22:29:00,64.0,61.7,29.41,ESE,121,0.0,0.0,92,0.00,,,0.12,VWS V14.01,2013-05-12 02:29:00,
2013-05-11 22:34:00,63.9,61.5,29.41,South,184,0.0,0.0,92,0.00,,,0.12,VWS V14.01,2013-05-12 02:34:00,
2013-05-11 22:39:00,63.9,61.5,29.41,South,184,0.0,0.0,92,0.00,,,0.12,VWS V14.01,2013-05-12 02:39:00,
2013-05-11 22:44:00,63.9,61.5,29.41,SW,234,0.0,0.0,92,0.00,,,0.12,VWS V14.01,2013-05-12 02:44:00,
2013-05-11 22:49:00,64.0,61.7,29.41,West,272,2.7,2.7,92,0.00,,,0.12,VWS V14.01,2013-05-12 02:49:00,
2013-05-11 22:54:00,64.0,62.0,29.41,SW,222,0.0,0.0,93,0.00,,,0.12,VWS V14.01,2013-05-12 02:54:00,
2013-05-11 22:59:00,63.9,61.8,29.41,SW,227,0.0,0.0,93,0.00,,,0.12,VWS V14.01,2013-05-12 02:59:00,
2013-05-11 23:04:00,64.0,62.0,29.41,SSE,149,0.0,0.0,93,0.00,,,0.12,VWS V14.01,2013-05-12 03:04:00,
2013-05-11 23:09:00,64.0,62.0,29.41,WSW,237,0.0,0.0,93,0.00,,,0.12,VWS V14.01,2013-05-12 03:09:00,
2013-05-11 23:14:00,63.9,61.8,29.41,WSW,257,0.0,0.0,93,0.00,,,0.12,VWS V14.01,2013-05-12 03:14:00,
2013-05-11 23:19:00,63.9,61.8,29.41,SE,138,0.0,0.0,93,0.00,,,0.12,VWS V14.01,2013-05-12 03:19:00,
2013-05-11 23:24:00,63.9,61.8,29.41,South,171,0.0,0.0,93,0.00,,,0.12,VWS V14.01,2013-05-12 03:24:00,
2013-05-11 23:29:00,63.9,61.8,29.41,SSE,165,0.0,0.0,93,0.00,,,0.12,VWS V14.01,2013-05-12 03:29:00,
2013-05-11 23:34:00,63.9,61.8,29.41,SSE,165,0.0,0.0,93,0.00,,,0.12,VWS V14.01,2013-05-12 03:34:00,
2013-05-11 23:39:00,63.9,61.8,29.41,SSW,209,0.0,0.0,93,0.00,,,0.12,VWS V14.01,2013-05-12 03:39:00,
2013-05-11 23:44:00,63.9,61.8,29.41,SW,223,0.0,0.0,93,0.00,,,0.12,VWS V14.01,2013-05-12 03:44:00,
2013-05-11 23:49:00,63.9,61.8,29.41,WSW,241,0.0,0.0,93,0.00,,,0.12,VWS V14.01,2013-05-12 03:49:00,
2013-05-11 23:54:00,63.9,61.8,29.41,SW,229,0.0,0.0,93,0.00,,,0.12,VWS V14.01,2013-05-12 03:54:00,
2013-05-11 23:59:00,63.9,61.8,29.41,SW,233,0.0,0.0,93,0.00,,,0.12,VWS V14.01,2013-05-12 03:59:00,